createdAt,value
2019-01-02T00:00:51.070Z,97.60
2019-01-02T00:03:24.036Z,97.80
2019-01-02T00:05:57.676Z,97.60
2019-01-02T00:08:30.637Z,98.10
2019-01-02T00:11:03.940Z,98.20
2019-01-02T00:13:37.579Z,98.70
2019-01-02T00:16:10.575Z,98.10
2019-01-02T00:18:44.271Z,98.00
2019-01-02T00:21:17.497Z,98.30
2019-01-02T00:23:50.488Z,98.20
2019-01-02T00:26:23.786Z,98.40
2019-01-02T00:28:56.910Z,98.30
2019-01-02T00:31:30.209Z,98.60
2019-01-02T00:34:02.965Z,98.30
2019-01-02T00:36:35.940Z,98.30
2019-01-02T00:39:10.783Z,98.10
2019-01-02T00:41:44.148Z,98.20
2019-01-02T00:44:17.372Z,98.30
2019-01-02T00:46:50.563Z,98.00
2019-01-02T00:49:23.816Z,98.10
2019-01-02T00:51:56.671Z,97.80
2019-01-02T00:54:29.483Z,97.80
2019-01-02T00:57:02.575Z,97.90
2019-01-02T00:59:35.855Z,97.90
2019-01-02T01:02:08.937Z,98.00
2019-01-02T01:04:41.743Z,97.60
2019-01-02T01:07:14.849Z,97.90
2019-01-02T01:09:48.157Z,97.60
2019-01-02T01:12:21.648Z,97.40
2019-01-02T01:14:55.211Z,97.70
2019-01-02T01:17:28.479Z,97.60
2019-01-02T01:20:01.479Z,97.70
2019-01-02T01:22:34.612Z,97.40
2019-01-02T01:25:07.855Z,97.70
2019-01-02T01:27:40.434Z,98.00
2019-01-02T01:30:14.032Z,98.10
2019-01-02T01:32:47.006Z,98.20
2019-01-02T01:35:20.872Z,98.60
2019-01-02T01:37:56.653Z,98.40
2019-01-02T01:40:30.160Z,98.30
2019-01-02T01:43:02.900Z,98.20
2019-01-02T01:45:36.007Z,98.10
2019-01-02T01:48:08.801Z,97.70
2019-01-02T01:50:41.682Z,97.50
2019-01-02T01:53:15.145Z,97.30
2019-01-02T01:55:48.237Z,97.20
2019-01-02T01:58:21.006Z,96.90
2019-01-02T02:00:53.980Z,96.50
2019-01-02T02:03:27.258Z,96.50
2019-01-02T02:06:00.330Z,96.50
2019-01-02T02:08:33.477Z,97.00
2019-01-02T02:11:06.363Z,96.70
2019-01-02T02:13:39.080Z,95.80
2019-01-02T02:16:12.154Z,96.00
2019-01-02T02:18:45.094Z,96.00
2019-01-02T02:21:17.919Z,96.20
2019-01-02T02:23:51.917Z,96.50
2019-01-02T02:26:24.884Z,96.20
2019-01-02T02:28:57.536Z,95.80
2019-01-02T02:31:30.351Z,95.00
2019-01-02T02:34:03.494Z,95.60
2019-01-02T02:36:36.760Z,96.10
2019-01-02T02:39:11.036Z,95.90
2019-01-02T02:41:44.108Z,95.70
2019-01-02T02:44:17.393Z,95.60
2019-01-02T02:46:50.537Z,95.10
2019-01-02T02:49:23.495Z,95.40
2019-01-02T02:51:56.282Z,95.60
2019-01-02T02:54:29.174Z,95.80
2019-01-02T02:57:02.452Z,95.50
2019-01-02T02:59:35.675Z,96.00
2019-01-02T03:02:08.911Z,95.30
2019-01-02T03:04:42.009Z,95.30
2019-01-02T03:07:15.187Z,95.30
2019-01-02T03:09:48.153Z,95.70
2019-01-02T03:12:21.344Z,95.30
2019-01-02T03:14:54.196Z,95.20
2019-01-02T03:17:27.047Z,95.60
2019-01-02T03:20:00.205Z,95.40
2019-01-02T03:22:33.224Z,95.70
2019-01-02T03:25:06.807Z,95.50
2019-01-02T03:27:40.245Z,95.60
2019-01-02T03:30:17.321Z,95.60
2019-01-02T03:32:50.513Z,95.60
2019-01-02T03:35:23.731Z,95.70
2019-01-02T03:37:57.019Z,95.90
2019-01-02T03:40:30.152Z,95.90
2019-01-02T03:43:03.068Z,95.90
2019-01-02T03:45:35.934Z,95.90
2019-01-02T03:48:08.854Z,96.10
2019-01-02T03:50:42.077Z,95.90
2019-01-02T03:53:15.213Z,95.90
2019-01-02T03:55:48.300Z,95.90
2019-01-02T03:58:21.204Z,96.10
2019-01-02T04:00:54.332Z,96.80
2019-01-02T04:03:27.718Z,97.00
2019-01-02T04:06:00.706Z,97.70
2019-01-02T04:08:33.740Z,96.60
2019-01-02T04:11:08.109Z,96.70
2019-01-02T04:13:41.199Z,96.80
2019-01-02T04:16:14.157Z,96.50
2019-01-02T04:18:47.058Z,96.40
2019-01-02T04:21:20.229Z,96.30
2019-01-02T04:23:53.154Z,96.60
2019-01-02T04:26:26.425Z,96.70
2019-01-02T04:28:59.439Z,97.00
2019-01-02T04:31:32.822Z,96.80
2019-01-02T04:34:07.814Z,97.00
2019-01-02T04:36:40.793Z,96.90
2019-01-02T04:39:16.238Z,97.90
2019-01-02T04:41:49.105Z,97.30
2019-01-02T04:44:22.096Z,96.60
2019-01-02T04:46:55.281Z,95.90
2019-01-02T04:49:28.361Z,95.80
2019-01-02T04:52:01.449Z,96.30
2019-01-02T04:54:34.737Z,96.50
2019-01-02T04:57:07.859Z,96.30
2019-01-02T04:59:41.169Z,96.10
2019-01-02T05:02:14.677Z,95.80
2019-01-02T05:04:47.566Z,96.20
2019-01-02T05:07:20.815Z,96.30
2019-01-02T05:09:53.922Z,96.60
2019-01-02T05:12:26.788Z,96.60
2019-01-02T05:15:00.246Z,96.10
2019-01-02T05:17:33.278Z,96.50
2019-01-02T05:20:07.739Z,95.80
2019-01-02T05:22:41.036Z,95.70
2019-01-02T05:25:14.006Z,95.70
2019-01-02T05:27:47.767Z,96.00
2019-01-02T05:30:22.506Z,96.90
2019-01-02T05:32:55.581Z,96.40
2019-01-02T05:35:28.352Z,96.50
2019-01-02T05:38:01.734Z,97.00
2019-01-02T05:40:34.685Z,97.20
2019-01-02T05:43:07.653Z,97.70
2019-01-02T05:45:41.283Z,98.00
2019-01-02T05:48:14.461Z,98.10
2019-01-02T05:50:47.443Z,98.30
2019-01-02T05:53:22.281Z,98.70
2019-01-02T05:55:55.479Z,99.00
2019-01-02T05:58:29.720Z,99.00
2019-01-02T06:01:02.753Z,99.10
2019-01-02T06:03:35.717Z,98.90
2019-01-02T06:06:08.966Z,99.10
2019-01-02T06:08:42.303Z,99.50
2019-01-02T06:11:15.413Z,99.60
2019-01-02T06:13:48.736Z,98.40
2019-01-02T06:16:21.838Z,98.00
2019-01-02T06:18:55.625Z,98.00
2019-01-02T06:21:28.692Z,97.80
2019-01-02T06:24:01.901Z,97.80
2019-01-02T06:26:34.790Z,98.10
2019-01-02T06:29:08.036Z,97.70
2019-01-02T06:31:41.255Z,97.40
2019-01-02T06:34:14.464Z,97.40
2019-01-02T06:36:47.492Z,97.80
2019-01-02T06:39:21.066Z,96.50
2019-01-02T06:41:54.386Z,94.50
2019-01-02T06:44:27.563Z,92.60
2019-01-02T06:47:01.112Z,91.50
2019-01-02T06:49:35.420Z,91.40
2019-01-02T06:52:09.230Z,90.00
2019-01-02T06:54:42.443Z,83.90
2019-01-02T06:57:15.845Z,80.10
2019-01-02T06:59:49.136Z,82.80
2019-01-02T07:02:22.188Z,83.70
2019-01-02T07:04:55.515Z,86.40
2019-01-02T07:07:31.322Z,89.10
2019-01-02T07:10:03.498Z,90.60
2019-01-02T07:12:36.571Z,91.50
2019-01-02T07:15:10.218Z,91.50
2019-01-02T07:17:43.350Z,91.70
2019-01-02T07:20:16.721Z,92.40
2019-01-02T07:22:49.779Z,93.50
2019-01-02T07:25:23.147Z,93.80
2019-01-02T07:27:56.614Z,93.80
2019-01-02T07:30:29.644Z,93.80
2019-01-02T07:33:02.801Z,93.80
2019-01-02T07:37:00.366Z,94.30
2019-01-02T07:40:14.859Z,95.10
2019-01-02T07:43:42.826Z,95.20
2019-01-02T07:47:07.337Z,95.10
2019-01-02T07:51:00.111Z,95.40
2019-01-02T07:54:39.015Z,95.60
2019-01-02T07:58:02.033Z,95.40
2019-01-02T08:01:34.882Z,95.00
2019-01-02T08:05:07.688Z,94.90
2019-01-02T08:08:32.760Z,93.90
2019-01-02T08:12:08.078Z,91.00
2019-01-02T08:15:41.215Z,91.30
2019-01-02T08:19:05.944Z,92.20
2019-01-02T08:22:48.148Z,92.60
2019-01-02T08:26:09.824Z,93.40
2019-01-02T08:29:37.781Z,93.20
2019-01-02T08:33:20.298Z,92.20
2019-01-02T08:37:02.114Z,92.20
2019-01-02T08:40:31.996Z,92.10
2019-01-02T08:44:32.713Z,91.80
2019-01-02T08:47:58.813Z,91.70
2019-01-02T08:52:00.946Z,91.80
2019-01-02T08:55:29.743Z,91.40
2019-01-02T08:59:05.349Z,90.90
2019-01-02T09:02:37.690Z,90.60
2019-01-02T09:06:07.405Z,89.60
2019-01-02T09:15:16.103Z,90.20
2019-01-02T09:18:45.629Z,90.30
2019-01-02T09:22:14.268Z,89.60
2019-01-02T09:25:31.562Z,89.80
2019-01-02T09:29:08.162Z,91.50
2019-01-02T09:32:28.423Z,91.50
2019-01-02T09:36:16.112Z,90.00
2019-01-02T09:39:31.278Z,88.40
2019-01-02T09:43:10.582Z,87.90
2019-01-02T09:46:33.304Z,88.00
2019-01-02T09:49:37.439Z,87.40
2019-01-02T09:52:43.848Z,87.30
2019-01-02T09:56:24.008Z,86.60
2019-01-02T10:00:02.070Z,87.50
2019-01-02T10:03:37.097Z,88.60
2019-01-02T10:06:45.818Z,88.70
2019-01-02T10:10:16.949Z,85.10
2019-01-02T10:13:35.085Z,86.60
2019-01-02T10:16:59.301Z,87.50
2019-01-02T10:20:57.680Z,86.80
2019-01-02T10:24:39.912Z,87.40
2019-01-02T10:28:07.120Z,87.00
2019-01-02T10:31:19.738Z,85.90
2019-01-02T10:34:45.789Z,87.60
2019-01-02T10:38:03.366Z,87.00
2019-01-02T10:41:50.823Z,87.30
2019-01-02T10:45:13.057Z,88.50
2019-01-02T10:48:24.320Z,87.70
2019-01-02T10:52:16.972Z,87.10
2019-01-02T10:55:27.774Z,86.70
2019-01-02T10:59:00.962Z,87.20
2019-01-02T11:02:17.347Z,86.60
2019-01-02T11:06:18.384Z,87.10
2019-01-02T11:09:46.291Z,87.50
2019-01-02T11:13:07.507Z,86.00
2019-01-02T11:16:38.867Z,84.20
2019-01-02T11:20:39.899Z,85.40
2019-01-02T11:24:25.677Z,84.60
2019-01-02T11:28:15.749Z,82.50
2019-01-02T11:31:25.271Z,79.50
2019-01-02T11:35:00.164Z,80.00
2019-01-02T11:38:43.491Z,81.20
2019-01-02T11:42:03.245Z,81.50
2019-01-02T11:45:13.853Z,80.10
2019-01-02T11:47:47.070Z,81.20
2019-01-02T11:50:20.236Z,80.30
2019-01-02T11:52:53.248Z,79.70
2019-01-02T11:55:26.235Z,80.70
2019-01-02T11:57:59.456Z,80.90
2019-01-02T12:00:34.433Z,81.20
2019-01-02T12:03:07.585Z,80.20
2019-01-02T12:05:40.469Z,79.80
2019-01-02T12:08:13.561Z,81.40
2019-01-02T12:10:46.798Z,81.40
2019-01-02T12:13:20.175Z,80.80
2019-01-02T12:15:53.751Z,81.60
2019-01-02T12:18:29.550Z,82.10
2019-01-02T12:21:02.817Z,82.80
2019-01-02T12:23:35.917Z,82.80
2019-01-02T12:26:10.153Z,82.90
2019-01-02T12:28:46.965Z,83.60
2019-01-02T12:31:20.462Z,85.20
2019-01-02T12:33:54.209Z,84.40
2019-01-02T12:36:27.447Z,84.30
2019-01-02T12:39:00.481Z,84.30
2019-01-02T12:41:34.051Z,84.80
2019-01-02T12:44:07.166Z,85.70
2019-01-02T12:46:40.355Z,85.90
2019-01-02T12:49:13.661Z,87.00
2019-01-02T12:51:46.577Z,86.30
2019-01-02T12:54:19.889Z,86.60
2019-01-02T12:56:53.109Z,86.70
2019-01-02T12:59:29.023Z,87.20
2019-01-02T13:03:09.555Z,87.80
2019-01-02T13:06:46.438Z,88.10
2019-01-02T13:10:24.842Z,88.50
2019-01-02T13:13:32.793Z,89.20
2019-01-02T13:16:31.933Z,89.80
2019-01-02T13:19:52.941Z,89.90
2019-01-02T13:23:31.302Z,89.90
2019-01-02T13:26:34.879Z,89.30
2019-01-02T13:29:52.415Z,88.30
2019-01-02T13:33:28.151Z,88.40
2019-01-02T13:37:02.100Z,88.70
2019-01-02T13:40:37.919Z,88.00
2019-01-02T13:43:57.695Z,88.20
2019-01-02T13:47:30.403Z,88.60
2019-01-02T13:50:22.583Z,89.60
2019-01-02T13:52:57.797Z,90.50
2019-01-02T13:55:31.653Z,90.50
2019-01-02T13:58:04.781Z,90.70
2019-01-02T14:00:38.344Z,90.90
2019-01-02T14:03:11.850Z,91.30
2019-01-02T14:05:50.479Z,91.50
2019-01-02T14:08:23.733Z,91.40
2019-01-02T14:10:56.889Z,91.90
2019-01-02T14:13:29.767Z,92.40
2019-01-02T14:16:02.978Z,92.70
2019-01-02T14:18:36.531Z,93.10
2019-01-02T14:21:09.924Z,93.30
2019-01-02T14:23:43.331Z,93.50
2019-01-02T14:26:18.555Z,93.70
2019-01-02T14:28:51.995Z,94.00
2019-01-02T14:31:25.523Z,94.10
2019-01-02T14:33:59.447Z,94.10
2019-01-02T14:36:32.806Z,93.90
2019-01-02T14:39:08.375Z,94.00
2019-01-02T14:41:41.443Z,94.20
2019-01-02T14:44:14.631Z,94.50
2019-01-02T14:46:50.576Z,94.60
2019-01-02T14:49:22.893Z,94.90
2019-01-02T14:51:56.246Z,94.90
2019-01-02T14:54:29.551Z,95.20
2019-01-02T14:57:03.265Z,95.40
2019-01-02T14:59:38.375Z,95.10
2019-01-02T15:02:11.835Z,95.30
2019-01-02T15:04:45.244Z,95.30
2019-01-02T15:07:26.654Z,95.10
2019-01-02T15:10:00.185Z,95.30
2019-01-02T15:12:33.936Z,95.40
2019-01-02T15:15:09.032Z,95.70
2019-01-02T15:17:42.581Z,95.80
2019-01-02T15:20:16.164Z,96.10
2019-01-02T15:22:49.179Z,96.30
2019-01-02T15:25:23.327Z,96.30
2019-01-02T15:27:58.723Z,96.50
2019-01-02T15:30:31.873Z,96.60
2019-01-02T15:33:05.537Z,96.60
2019-01-02T15:35:38.614Z,96.80
2019-01-02T15:38:12.000Z,96.60
2019-01-02T15:40:45.385Z,96.90
2019-01-02T15:43:23.846Z,97.30
2019-01-02T15:45:57.159Z,96.40
2019-01-02T15:48:30.574Z,96.60
2019-01-02T15:51:04.119Z,96.30
2019-01-02T15:53:37.379Z,96.50
2019-01-02T15:56:11.346Z,96.60
2019-01-02T15:58:44.777Z,96.80
2019-01-02T16:01:18.343Z,96.50
2019-01-02T16:03:51.525Z,96.40
2019-01-02T16:06:25.224Z,96.00
2019-01-02T16:08:58.887Z,96.00
2019-01-02T16:11:32.139Z,95.90
2019-01-02T16:14:05.709Z,95.90
2019-01-02T16:16:39.182Z,95.70
2019-01-02T16:19:12.227Z,95.40
2019-01-02T16:21:48.405Z,95.40
2019-01-02T16:24:21.715Z,95.40
2019-01-02T16:26:56.289Z,95.10
2019-01-02T16:29:29.718Z,94.60
2019-01-02T16:32:02.724Z,94.60
2019-01-02T16:34:36.065Z,94.00
2019-01-02T16:37:09.409Z,94.30
2019-01-02T16:39:43.085Z,94.40
2019-01-02T16:42:16.658Z,94.70
2019-01-02T16:44:50.103Z,94.40
2019-01-02T16:47:23.383Z,94.10
2019-01-02T16:49:56.506Z,94.00
2019-01-02T16:52:30.592Z,94.80
2019-01-02T16:55:04.902Z,94.50
2019-01-02T16:57:38.494Z,94.00
2019-01-02T17:00:15.109Z,94.10
2019-01-02T17:02:49.204Z,94.00
2019-01-02T17:05:24.546Z,93.70
2019-01-02T17:07:57.917Z,93.90
2019-01-02T17:10:31.547Z,93.50
2019-01-02T17:13:05.302Z,93.90
2019-01-02T17:15:41.746Z,93.30
2019-01-02T17:18:15.699Z,93.50
2019-01-02T17:20:49.241Z,93.80
2019-01-02T17:23:22.719Z,93.70
2019-01-02T17:25:56.154Z,93.40
2019-01-02T17:28:29.578Z,92.90
2019-01-02T17:31:03.025Z,93.30
2019-01-02T17:33:35.870Z,92.90
2019-01-02T17:36:09.183Z,93.30
2019-01-02T17:38:44.295Z,93.30
2019-01-02T17:41:18.209Z,93.90
2019-01-02T17:43:54.366Z,93.80
2019-01-02T17:46:29.771Z,93.80
2019-01-02T17:49:03.415Z,93.90
2019-01-02T17:51:36.480Z,93.80
2019-01-02T17:54:10.267Z,93.80
2019-01-02T17:56:43.873Z,94.30
2019-01-02T17:59:17.516Z,94.90
2019-01-02T18:01:51.105Z,94.60
2019-01-02T18:04:25.217Z,94.90
2019-01-02T18:06:59.333Z,94.60
2019-01-02T18:09:32.734Z,94.50
2019-01-02T18:12:06.389Z,94.90
2019-01-02T18:14:40.224Z,95.10
2019-01-02T18:17:13.596Z,94.90
2019-01-02T18:19:47.250Z,95.20
2019-01-02T18:22:21.598Z,95.40
2019-01-02T18:24:55.363Z,94.90
2019-01-02T18:27:28.929Z,95.30
2019-01-02T18:30:03.516Z,95.30
2019-01-02T18:32:36.901Z,95.50
2019-01-02T18:35:12.928Z,95.00
2019-01-02T18:37:49.299Z,95.20
2019-01-02T18:40:24.060Z,95.50
2019-01-02T18:42:57.265Z,95.30
2019-01-02T18:45:30.939Z,95.20
2019-01-02T18:48:08.247Z,95.40
2019-01-02T18:50:42.665Z,95.70
2019-01-02T18:53:18.836Z,95.80
2019-01-02T18:55:53.554Z,95.90
2019-01-02T18:58:29.967Z,95.60
2019-01-02T19:01:04.200Z,95.90
2019-01-02T19:03:37.912Z,95.80
2019-01-02T19:06:12.781Z,96.20
2019-01-02T19:08:46.845Z,96.40
2019-01-02T19:11:21.163Z,96.10
2019-01-02T19:13:54.620Z,96.20
2019-01-02T19:16:29.205Z,95.90
2019-01-02T19:19:05.205Z,95.90
2019-01-02T19:21:39.345Z,96.10
2019-01-02T19:24:15.410Z,95.80
2019-01-02T19:26:52.673Z,96.10
2019-01-02T19:29:27.705Z,96.20
2019-01-02T19:32:01.610Z,96.40
2019-01-02T19:34:35.156Z,96.20
2019-01-02T19:37:10.619Z,96.20
2019-01-02T19:39:43.909Z,96.20
2019-01-02T19:42:19.013Z,96.30
2019-01-02T19:44:52.877Z,96.30
2019-01-02T19:47:26.832Z,96.50
2019-01-02T19:50:00.624Z,96.40
2019-01-02T19:52:37.038Z,96.10
2019-01-02T19:55:11.257Z,96.30
2019-01-02T19:57:45.029Z,96.10
2019-01-02T20:00:19.203Z,96.00
2019-01-02T20:02:52.590Z,95.90
2019-01-02T20:05:25.791Z,96.10
2019-01-02T20:07:59.080Z,96.30
2019-01-02T20:10:32.588Z,96.30
2019-01-02T20:13:06.321Z,96.30
2019-01-02T20:15:40.428Z,96.50
2019-01-02T20:18:16.994Z,96.30
2019-01-02T20:20:52.101Z,96.20
2019-01-02T20:23:25.703Z,96.50
2019-01-02T20:25:59.410Z,96.60
2019-01-02T20:28:32.599Z,96.80
2019-01-02T20:31:05.595Z,96.70
2019-01-02T20:33:40.810Z,96.40
2019-01-02T20:36:13.620Z,96.60
2019-01-02T20:38:47.072Z,96.30
2019-01-02T20:41:20.007Z,96.40
2019-01-02T20:43:53.571Z,96.60
2019-01-02T20:46:26.810Z,96.80
2019-01-02T20:49:00.938Z,96.80
2019-01-02T20:51:34.707Z,96.80
2019-01-02T20:54:07.957Z,97.00
2019-01-02T20:56:41.356Z,96.80
2019-01-02T20:59:14.945Z,96.60
2019-01-02T21:01:48.335Z,96.70
2019-01-02T21:04:21.368Z,96.70
2019-01-02T21:06:55.989Z,96.70
2019-01-02T21:09:31.603Z,96.90
2019-01-02T21:12:04.784Z,96.90
2019-01-02T21:14:38.030Z,97.00
2019-01-02T21:17:11.144Z,97.30
2019-01-02T21:19:44.479Z,97.00
2019-01-02T21:22:17.765Z,97.20
2019-01-02T21:24:52.116Z,97.00
2019-01-02T21:27:25.333Z,97.40
2019-01-02T21:29:58.669Z,97.20
2019-01-02T21:32:31.920Z,97.30
2019-01-02T21:35:05.305Z,97.20
2019-01-02T21:37:38.943Z,96.80
2019-01-02T21:40:12.255Z,97.10
2019-01-02T21:42:45.539Z,97.00
2019-01-02T21:45:18.685Z,97.30
2019-01-02T21:47:51.865Z,97.30
2019-01-02T21:50:25.117Z,97.10
2019-01-02T21:52:58.610Z,97.00
2019-01-02T21:55:31.725Z,97.10
2019-01-02T21:58:04.618Z,96.90
2019-01-02T22:00:37.888Z,97.20
2019-01-02T22:03:11.548Z,97.20
2019-01-02T22:05:44.850Z,97.40
2019-01-02T22:08:18.017Z,97.40
2019-01-02T22:10:51.559Z,97.10
2019-01-02T22:13:24.700Z,97.10
2019-01-02T22:15:57.785Z,97.10
2019-01-02T22:18:31.095Z,97.20
2019-01-02T22:21:04.152Z,96.90
2019-01-02T22:23:37.150Z,96.80
2019-01-02T22:26:10.141Z,96.90
2019-01-02T22:28:43.351Z,96.70
2019-01-02T22:31:22.528Z,96.50
2019-01-02T22:33:55.671Z,96.50
2019-01-02T22:36:28.807Z,96.70
2019-01-02T22:39:01.741Z,96.70
2019-01-02T22:41:34.637Z,96.40
2019-01-02T22:44:07.984Z,96.30
2019-01-02T22:46:41.152Z,96.40
2019-01-02T22:49:14.163Z,96.60
2019-01-02T22:51:47.119Z,96.70
2019-01-02T22:54:19.764Z,96.40
2019-01-02T22:56:52.573Z,96.40
2019-01-02T22:59:26.037Z,96.40
2019-01-02T23:02:23.883Z,96.70
2019-01-02T23:05:33.836Z,96.60
2019-01-02T23:08:44.235Z,96.90
2019-01-02T23:11:38.716Z,96.90
2019-01-02T23:14:45.563Z,96.80
2019-01-02T23:17:35.670Z,97.00
2019-01-02T23:20:33.702Z,96.70
2019-01-02T23:23:24.392Z,97.20
2019-01-02T23:26:14.514Z,96.90
2019-01-02T23:29:05.885Z,96.90
2019-01-02T23:32:03.538Z,96.70
2019-01-02T23:34:53.931Z,96.90
2019-01-02T23:37:40.130Z,97.10
2019-01-02T23:40:32.553Z,96.80
2019-01-02T23:43:24.175Z,96.90
2019-01-02T23:46:14.863Z,97.00
2019-01-02T23:49:06.489Z,97.00
2019-01-02T23:51:59.745Z,97.10
2019-01-02T23:55:06.603Z,97.20
2019-01-02T23:58:09.447Z,97.40
